Time;durP1;ratioP1;P1;durP2;ratioP2;P2;SDS_P1;SDS_P2;PMS_P1;PMS_P2;Temp;Humidity;BMP_temperature;BMP_pressure;BME280_temperature;BME280_humidity;BME280_pressure;Samples;Min_cycle;Max_cycle;Signal;HPM_P1;HPM_P2
2023/10/27 00:01:32;;;;;;;4.22;1.20;;;19.80;69.20;;;;;;4975550;28;20371;-65
2023/10/27 00:03:59;;;;;;;5.57;1.20;;;19.30;70.60;;;;;;4975448;28;20036;-67
2023/10/27 00:06:32;;;;;;;7.93;1.45;;;19.20;71.50;;;;;;4975415;28;20027;-65
2023/10/27 00:09:00;;;;;;;3.60;1.00;;;19.20;71.30;;;;;;4975801;28;20073;-65
2023/10/27 00:11:28;;;;;;;8.15;1.50;;;19.00;73.70;;;;;;4975718;28;20018;-65
2023/10/27 00:13:56;;;;;;;10.05;1.30;;;18.30;83.10;;;;;;4975539;28;20133;-65
2023/10/27 00:16:23;;;;;;;9.93;1.73;;;17.80;86.10;;;;;;4936382;29;20054;-65
2023/10/27 00:18:50;;;;;;;8.23;2.05;;;17.30;90.70;;;;;;4937169;29;20112;-65
2023/10/27 00:21:18;;;;;;;12.05;1.50;;;16.80;92.40;;;;;;4937323;29;20023;-66
2023/10/27 00:23:45;;;;;;;11.10;1.80;;;16.60;92.70;;;;;;4937595;29;20102;-66
2023/10/27 00:26:12;;;;;;;7.45;1.30;;;16.70;93.00;;;;;;4919977;29;20401;-66
2023/10/27 00:28:40;;;;;;;7.53;1.38;;;17.20;93.60;;;;;;4937102;29;20019;-66
2023/10/27 00:31:07;;;;;;;10.65;1.55;;;17.60;91.80;;;;;;4939760;28;20042;-66
2023/10/27 00:33:34;;;;;;;6.38;1.67;;;18.10;91.20;;;;;;4955877;28;20077;-65
2023/10/27 00:36:02;;;;;;;5.40;1.35;;;18.40;88.40;;;;;;4956167;29;20042;-65
2023/10/27 00:38:30;;;;;;;9.02;1.92;;;18.80;91.00;;;;;;4956202;29;20125;-65
2023/10/27 00:40:57;;;;;;;7.75;1.20;;;19.20;88.20;;;;;;4955961;29;20033;-67
2023/10/27 00:43:24;;;;;;;11.75;1.27;;;19.30;83.60;;;;;;4955811;29;20508;-65
2023/10/27 00:45:53;;;;;;;3.90;1.15;;;19.30;83.00;;;;;;4955637;29;20469;-65
2023/10/27 00:48:22;;;;;;;8.32;1.58;;;19.40;81.50;;;;;;4955952;28;20023;-65
2023/10/27 00:50:49;;;;;;;5.50;1.10;;;19.50;81.70;;;;;;4955769;29;20102;-64
2023/10/27 00:53:20;;;;;;;7.05;1.20;;;19.70;80.50;;;;;;4955369;29;20024;-65
2023/10/27 00:55:49;;;;;;;11.40;1.88;;;19.90;80.60;;;;;;4941075;29;20114;-65
2023/10/27 00:58:17;;;;;;;11.63;1.42;;;20.20;77.40;;;;;;4936116;29;20027;-65
2023/10/27 01:00:45;;;;;;;6.13;1.20;;;20.30;79.70;;;;;;4943087;28;20023;-64
2023/10/27 01:03:12;;;;;;;6.43;0.80;;;20.40;73.60;;;;;;4974775;28;20026;-65
2023/10/27 01:05:40;;;;;;;6.50;1.38;;;20.60;72.90;;;;;;4968512;28;20043;-65
2023/10/27 01:08:07;;;;;;;6.07;1.17;;;20.90;72.90;;;;;;4955185;29;20027;-66
2023/10/27 01:10:34;;;;;;;6.72;1.27;;;21.40;72.70;;;;;;4955153;29;20043;-65
2023/10/27 01:13:02;;;;;;;3.97;1.17;;;22.10;73.10;;;;;;4954999;28;20025;-65
2023/10/27 01:15:30;;;;;;;3.40;0.82;;;22.20;69.40;;;;;;4954763;29;20421;-66
2023/10/27 01:17:58;;;;;;;3.90;1.42;;;21.80;67.90;;;;;;4955258;29;20027;-65
2023/10/27 01:20:25;;;;;;;8.00;1.30;;;21.30;66.70;;;;;;4954960;29;20027;-65
2023/10/27 01:22:53;;;;;;;3.40;0.90;;;21.10;65.50;;;;;;4955298;28;20412;-66
2023/10/27 01:25:20;;;;;;;4.25;0.88;;;20.60;66.50;;;;;;4954821;29;20119;-65
2023/10/27 01:27:48;;;;;;;3.92;1.08;;;20.20;67.60;;;;;;4953001;28;20392;-65
2023/10/27 01:30:15;;;;;;;4.40;1.00;;;20.00;67.80;;;;;;4954917;29;20062;-65
2023/10/27 01:32:44;;;;;;;9.95;1.25;;;19.80;68.60;;;;;;4954831;29;20051;-64
2023/10/27 01:35:13;;;;;;;9.13;1.90;;;19.20;73.30;;;;;;4954589;29;20055;-65
2023/10/27 01:37:40;;;;;;;13.65;1.60;;;18.20;80.00;;;;;;4954538;28;20070;-66
2023/10/27 01:40:08;;;;;;;10.65;1.50;;;17.70;84.80;;;;;;4954910;28;20023;-65
2023/10/27 01:42:36;;;;;;;8.15;2.00;;;17.50;86.10;;;;;;4954618;28;20050;-65
2023/10/27 01:45:07;;;;;;;10.45;1.85;;;17.30;88.10;;;;;;4952992;28;20413;-66
2023/10/27 01:47:34;;;;;;;8.73;1.50;;;17.60;87.70;;;;;;4954552;29;20027;-66
2023/10/27 01:50:02;;;;;;;9.07;1.60;;;17.90;87.60;;;;;;4954327;29;20397;-65
2023/10/27 01:52:29;;;;;;;11.07;2.35;;;18.30;86.50;;;;;;4954032;29;20024;-65
2023/10/27 01:54:57;;;;;;;15.55;2.40;;;18.80;83.60;;;;;;4935003;29;20469;-64
2023/10/27 01:57:25;;;;;;;7.93;2.10;;;19.30;84.70;;;;;;4948281;28;20042;-65
2023/10/27 01:59:52;;;;;;;8.95;1.80;;;19.90;82.70;;;;;;4954281;29;20023;-65
2023/10/27 02:02:21;;;;;;;10.98;1.73;;;19.80;80.10;;;;;;4970261;28;20033;-65
2023/10/27 02:04:48;;;;;;;9.05;1.60;;;19.50;80.80;;;;;;4972074;28;20026;-66
2023/10/27 02:07:15;;;;;;;7.35;1.00;;;19.20;80.60;;;;;;4973354;28;20436;-65
2023/10/27 02:09:43;;;;;;;7.55;1.55;;;18.90;74.30;;;;;;4973567;28;20023;-65
2023/10/27 02:12:11;;;;;;;7.40;0.88;;;18.80;74.40;;;;;;4973443;28;20031;-66
2023/10/27 02:14:41;;;;;;;6.65;1.00;;;18.90;74.00;;;;;;4972603;28;20530;-66
2023/10/27 02:17:08;;;;;;;6.82;0.90;;;19.20;73.50;;;;;;4972962;28;20050;-65
2023/10/27 02:19:35;;;;;;;5.03;0.90;;;19.70;74.60;;;;;;4973197;28;20429;-65
2023/10/27 02:22:03;;;;;;;5.03;1.42;;;20.00;70.90;;;;;;4972893;28;20023;-66
2023/10/27 02:24:30;;;;;;;8.38;1.33;;;20.40;69.70;;;;;;4973206;28;20204;-66
2023/10/27 02:26:58;;;;;;;8.32;1.23;;;20.40;68.30;;;;;;4973020;28;20459;-66
2023/10/27 02:29:26;;;;;;;7.57;1.45;;;19.90;74.00;;;;;;4972822;28;20082;-65
2023/10/27 02:31:53;;;;;;;6.70;1.20;;;19.10;78.30;;;;;;4971975;28;20023;-66
2023/10/27 02:34:20;;;;;;;7.10;1.17;;;18.60;80.80;;;;;;4971147;28;20387;-65
2023/10/27 02:36:48;;;;;;;6.10;1.10;;;18.30;80.80;;;;;;4973052;28;20768;-65
2023/10/27 02:39:15;;;;;;;9.32;1.58;;;18.20;80.70;;;;;;4975601;28;20077;-65
2023/10/27 02:41:42;;;;;;;4.97;1.10;;;18.30;80.20;;;;;;4975393;28;20056;-65
2023/10/27 02:44:10;;;;;;;6.10;1.10;;;18.90;74.50;;;;;;4976980;28;20472;-65
2023/10/27 02:46:37;;;;;;;6.47;1.20;;;18.80;73.10;;;;;;4976694;28;20022;-65
2023/10/27 02:49:05;;;;;;;3.90;0.75;;;18.50;73.30;;;;;;4975621;28;20031;-65
2023/10/27 02:51:33;;;;;;;4.97;0.90;;;18.40;74.00;;;;;;4967083;28;20027;-65
2023/10/27 02:54:01;;;;;;;4.32;1.00;;;19.00;72.50;;;;;;4957396;29;20097;-66
2023/10/27 02:56:28;;;;;;;4.13;1.15;;;19.80;71.30;;;;;;4956946;29;20038;-66
2023/10/27 02:58:56;;;;;;;4.28;1.10;;;20.10;67.20;;;;;;4955979;29;20015;-65
2023/10/27 03:01:23;;;;;;;5.35;1.38;;;20.70;65.60;;;;;;4965655;28;20149;-65
2023/10/27 03:03:50;;;;;;;4.53;1.10;;;21.50;65.00;;;;;;4976301;28;20054;-67
2023/10/27 03:06:18;;;;;;;4.32;1.08;;;21.80;63.10;;;;;;4957341;28;20511;-65
2023/10/27 03:08:45;;;;;;;5.72;1.15;;;21.90;62.60;;;;;;4957485;28;20162;-66
2023/10/27 03:11:13;;;;;;;7.70;1.00;;;22.40;63.80;;;;;;4957101;29;20026;-67
2023/10/27 03:13:40;;;;;;;10.27;1.45;;;22.60;62.40;;;;;;4956910;29;20027;-66
2023/10/27 03:16:07;;;;;;;6.10;1.13;;;21.90;61.30;;;;;;4956666;29;20460;-67
2023/10/27 03:18:35;;;;;;;5.00;1.20;;;21.10;63.20;;;;;;4957169;28;20321;-66
2023/10/27 03:21:06;;;;;;;7.50;1.33;;;20.60;62.00;;;;;;4957241;28;20020;-67
2023/10/27 03:23:33;;;;;;;5.22;1.00;;;20.30;64.10;;;;;;4956932;29;20016;-66
2023/10/27 03:26:01;;;;;;;10.25;1.58;;;20.50;64.90;;;;;;4956829;28;20465;-66
2023/10/27 03:28:28;;;;;;;7.45;1.33;;;20.60;65.20;;;;;;4956625;29;20027;-66
2023/10/27 03:30:55;;;;;;;4.88;1.05;;;20.90;64.50;;;;;;4956660;29;20119;-66
2023/10/27 03:33:23;;;;;;;7.07;0.90;;;20.70;63.00;;;;;;4955134;28;20050;-66
2023/10/27 03:35:50;;;;;;;2.13;0.60;;;20.30;62.90;;;;;;4956746;29;20027;-66
2023/10/27 03:38:17;;;;;;;6.20;0.90;;;20.00;64.10;;;;;;4957399;28;20469;-66
2023/10/27 03:40:47;;;;;;;2.97;0.80;;;19.80;64.70;;;;;;4956526;28;20027;-66
2023/10/27 03:43:15;;;;;;;2.60;0.68;;;19.90;65.60;;;;;;4956250;28;20515;-65
2023/10/27 03:45:42;;;;;;;3.20;0.52;;;19.60;64.00;;;;;;4956633;29;20023;-66
2023/10/27 03:48:10;;;;;;;1.90;0.40;;;19.40;64.60;;;;;;4956434;29;20019;-66
2023/10/27 03:50:37;;;;;;;2.85;0.52;;;19.30;66.20;;;;;;4935932;29;20024;-65
2023/10/27 03:53:05;;;;;;;7.70;1.67;;;19.70;66.60;;;;;;4937158;29;20022;-65
2023/10/27 03:55:35;;;;;;;6.65;1.13;;;19.90;68.60;;;;;;4947416;28;20023;-64
2023/10/27 03:58:15;;;;;;;7.57;1.30;;;19.80;71.40;;;;;;4975834;28;20031;-65
2023/10/27 04:00:43;;;;;;;5.47;1.02;;;20.00;74.80;;;;;;4975596;28;20427;-65
2023/10/27 04:03:11;;;;;;;6.97;1.20;;;20.60;72.70;;;;;;4975351;28;20418;-66
2023/10/27 04:05:39;;;;;;;4.50;1.13;;;21.30;68.90;;;;;;4975568;28;20380;-65
2023/10/27 04:08:06;;;;;;;8.73;1.27;;;21.40;65.80;;;;;;4975736;28;20031;-64
2023/10/27 04:10:36;;;;;;;4.78;1.00;;;20.70;66.30;;;;;;4975429;28;20530;-65
2023/10/27 04:13:04;;;;;;;4.93;0.70;;;20.00;65.70;;;;;;4965999;28;20110;-65
2023/10/27 04:15:31;;;;;;;7.15;1.60;;;19.40;66.60;;;;;;4955942;28;20373;-66
2023/10/27 04:18:00;;;;;;;6.45;1.05;;;19.00;70.00;;;;;;4955887;29;20035;-65
2023/10/27 04:20:27;;;;;;;5.28;0.82;;;18.90;71.30;;;;;;4956108;29;20518;-66
2023/10/27 04:22:54;;;;;;;7.53;1.33;;;18.70;72.80;;;;;;4955627;29;20481;-66
2023/10/27 04:25:23;;;;;;;5.55;1.10;;;18.70;72.70;;;;;;4955727;29;20023;-64
2023/10/27 04:27:50;;;;;;;4.65;0.80;;;18.70;72.10;;;;;;4955747;29;20023;-64
2023/10/27 04:30:17;;;;;;;2.88;0.60;;;18.50;72.30;;;;;;4955985;28;20050;-65
2023/10/27 04:32:45;;;;;;;5.30;1.25;;;18.60;73.10;;;;;;4955441;29;20058;-65
2023/10/27 04:35:13;;;;;;;3.58;0.52;;;18.80;72.10;;;;;;4955373;29;20019;-65
2023/10/27 04:37:40;;;;;;;5.60;1.17;;;19.20;69.60;;;;;;4955737;29;20050;-65
2023/10/27 04:40:09;;;;;;;4.50;1.00;;;19.80;67.20;;;;;;4955524;29;20019;-65
2023/10/27 04:42:36;;;;;;;4.63;0.80;;;20.50;66.40;;;;;;4955557;29;20109;-66
2023/10/27 04:45:04;;;;;;;9.43;1.17;;;21.10;64.30;;;;;;4955413;29;20054;-66
2023/10/27 04:47:31;;;;;;;5.82;0.75;;;21.10;63.70;;;;;;4954461;28;20030;-66
2023/10/27 04:49:58;;;;;;;4.60;0.85;;;21.00;64.00;;;;;;4955112;29;20440;-65
2023/10/27 04:52:25;;;;;;;4.93;1.33;;;20.70;66.90;;;;;;4955201;29;20023;-65
2023/10/27 04:54:53;;;;;;;5.50;0.90;;;20.30;69.00;;;;;;4955245;28;20027;-66
2023/10/27 04:57:21;;;;;;;7.82;1.35;;;19.90;70.70;;;;;;4954898;29;20135;-65
2023/10/27 04:59:48;;;;;;;6.68;1.35;;;19.70;70.40;;;;;;4954963;29;20483;-65
2023/10/27 05:02:15;;;;;;;3.88;1.02;;;19.80;70.80;;;;;;4969876;28;20027;-65
2023/10/27 05:04:42;;;;;;;13.77;1.75;;;20.00;70.60;;;;;;4973448;28;20023;-65
2023/10/27 05:07:10;;;;;;;4.82;0.82;;;20.40;68.30;;;;;;4974198;28;20023;-65
2023/10/27 05:09:37;;;;;;;5.80;1.00;;;20.30;69.20;;;;;;4974130;28;20473;-67
2023/10/27 05:12:05;;;;;;;8.60;1.92;;;20.30;69.00;;;;;;4974457;28;20061;-65
2023/10/27 05:14:34;;;;;;;7.68;1.38;;;20.30;68.40;;;;;;4974058;28;20073;-65
2023/10/27 05:17:01;;;;;;;5.10;0.80;;;20.20;68.80;;;;;;4973764;28;20066;-65
2023/10/27 05:19:29;;;;;;;4.70;0.65;;;19.80;69.40;;;;;;4974130;28;20018;-65
2023/10/27 05:21:56;;;;;;;3.78;0.77;;;19.60;71.20;;;;;;4973283;28;20065;-65
2023/10/27 05:24:24;;;;;;;4.82;1.00;;;19.60;70.10;;;;;;4973886;28;20023;-65
2023/10/27 05:26:53;;;;;;;7.18;1.30;;;19.60;71.10;;;;;;4973803;28;20254;-65
2023/10/27 05:29:20;;;;;;;8.30;1.05;;;19.80;69.40;;;;;;4973670;28;20018;-65
2023/10/27 05:31:47;;;;;;;4.68;0.88;;;19.70;69.10;;;;;;4973868;28;20471;-65
2023/10/27 05:34:15;;;;;;;5.30;0.75;;;19.70;68.40;;;;;;4973899;28;20053;-65
2023/10/27 05:36:43;;;;;;;5.85;0.80;;;19.60;66.70;;;;;;4973808;28;20042;-66
2023/10/27 05:39:20;;;;;;;4.63;1.20;;;19.70;65.70;;;;;;4972760;28;20487;-66
2023/10/27 05:41:47;;;;;;;2.70;0.65;;;20.00;65.90;;;;;;4973536;28;20030;-65
2023/10/27 05:44:15;;;;;;;7.35;1.08;;;20.30;65.10;;;;;;4973222;28;20027;-65
2023/10/27 05:46:42;;;;;;;6.93;1.45;;;20.40;65.50;;;;;;4954823;29;20027;-66
2023/10/27 05:49:10;;;;;;;4.47;0.98;;;20.70;64.40;;;;;;4954336;29;20341;-65
2023/10/27 05:51:37;;;;;;;6.50;0.70;;;20.90;62.30;;;;;;4954224;29;20027;-65
2023/10/27 05:54:08;;;;;;;4.13;0.73;;;20.60;61.40;;;;;;4937276;28;20563;-66
2023/10/27 05:56:35;;;;;;;3.47;0.70;;;20.30;60.50;;;;;;4954036;29;20122;-66
2023/10/27 05:59:02;;;;;;;5.63;0.90;;;20.00;61.30;;;;;;4954362;29;20019;-65
2023/10/27 06:01:30;;;;;;;5.95;1.05;;;19.70;62.20;;;;;;4962879;28;20372;-65
2023/10/27 06:04:00;;;;;;;5.03;1.00;;;19.40;62.70;;;;;;4973540;28;20027;-65
2023/10/27 06:06:27;;;;;;;5.68;1.17;;;19.20;63.80;;;;;;4973568;28;20042;-64
2023/10/27 06:08:55;;;;;;;6.68;0.90;;;19.20;63.30;;;;;;4973257;28;20377;-65
2023/10/27 06:11:22;;;;;;;3.55;0.90;;;19.20;63.70;;;;;;4969423;28;20030;-65
2023/10/27 06:13:50;;;;;;;4.50;1.25;;;19.20;64.40;;;;;;4953407;28;20023;-65
2023/10/27 06:16:17;;;;;;;6.47;1.00;;;19.10;64.80;;;;;;4954266;29;20031;-65
2023/10/27 06:18:45;;;;;;;6.75;1.08;;;18.90;66.60;;;;;;4954094;29;20477;-65
2023/10/27 06:21:12;;;;;;;18.33;1.38;;;18.60;68.60;;;;;;4953845;29;20515;-65
2023/10/27 06:23:39;;;;;;;7.10;1.08;;;17.90;70.60;;;;;;4953779;29;20106;-65
2023/10/27 06:26:07;;;;;;;4.75;1.08;;;17.20;76.70;;;;;;4953781;29;20376;-66
2023/10/27 06:28:35;;;;;;;6.22;1.10;;;16.80;80.90;;;;;;4954580;28;20023;-65
2023/10/27 06:31:03;;;;;;;10.35;1.23;;;16.70;86.90;;;;;;4954036;29;20026;-65
2023/10/27 06:33:33;;;;;;;8.85;1.50;;;16.60;89.40;;;;;;4954094;29;20043;-66
2023/10/27 06:36:01;;;;;;;6.50;1.10;;;16.60;90.70;;;;;;4953833;29;20039;-66
2023/10/27 06:38:29;;;;;;;4.20;1.02;;;16.50;91.20;;;;;;4953765;29;20027;-66
2023/10/27 06:40:57;;;;;;;10.27;1.98;;;16.40;91.70;;;;;;4953946;29;20073;-65
2023/10/27 06:43:24;;;;;;;7.15;1.33;;;16.40;91.90;;;;;;4953605;29;20461;-65
2023/10/27 06:45:51;;;;;;;9.00;1.38;;;16.70;92.30;;;;;;4954344;28;20479;-66
2023/10/27 06:48:19;;;;;;;7.70;1.10;;;16.80;92.10;;;;;;4953624;29;20016;-66
2023/10/27 06:50:46;;;;;;;7.25;1.52;;;17.00;92.00;;;;;;4953784;29;20023;-65
2023/10/27 06:53:13;;;;;;;8.88;1.35;;;17.00;91.90;;;;;;4953657;29;20461;-65
2023/10/27 06:55:41;;;;;;;5.97;0.95;;;17.10;91.30;;;;;;4953605;29;20065;-65
2023/10/27 06:58:09;;;;;;;10.15;2.63;;;17.00;91.60;;;;;;4953630;29;20417;-66
2023/10/27 07:00:36;;;;;;;4.78;0.93;;;17.10;92.00;;;;;;4956203;28;20031;-65
2023/10/27 07:03:03;;;;;;;9.52;1.40;;;17.10;91.30;;;;;;4962892;28;20382;-65
2023/10/27 07:05:31;;;;;;;13.15;1.88;;;17.20;88.60;;;;;;4953518;29;20023;-65
2023/10/27 07:07:58;;;;;;;6.68;1.52;;;17.20;87.00;;;;;;4954034;29;20453;-65
2023/10/27 07:10:28;;;;;;;5.63;1.40;;;17.20;86.00;;;;;;4953166;29;20040;-65
2023/10/27 07:12:56;;;;;;;7.78;1.58;;;17.20;85.40;;;;;;4953744;29;20019;-66
2023/10/27 07:15:23;;;;;;;9.77;1.77;;;17.00;85.40;;;;;;4953486;29;20028;-66
2023/10/27 07:17:51;;;;;;;6.07;1.38;;;17.00;86.40;;;;;;4953106;29;20019;-66
2023/10/27 07:20:18;;;;;;;7.00;1.50;;;17.10;85.30;;;;;;4954105;28;20408;-66
2023/10/27 07:22:46;;;;;;;9.75;1.98;;;17.10;84.00;;;;;;4953517;29;20030;-64
2023/10/27 07:25:13;;;;;;;5.22;1.27;;;17.00;84.50;;;;;;4956008;28;20103;-65
2023/10/27 07:27:43;;;;;;;8.65;1.42;;;17.00;83.60;;;;;;4956936;29;20029;-66
2023/10/27 07:30:11;;;;;;;7.70;1.42;;;17.00;83.40;;;;;;4956710;29;20019;-65
2023/10/27 07:32:38;;;;;;;9.55;2.17;;;17.00;83.50;;;;;;4956491;28;20491;-65
2023/10/27 07:35:06;;;;;;;4.28;1.05;;;16.90;83.60;;;;;;4955601;29;20369;-65
2023/10/27 07:37:33;;;;;;;7.28;2.08;;;16.60;84.80;;;;;;4957257;28;20122;-65
2023/10/27 07:40:01;;;;;;;4.25;0.80;;;16.30;86.30;;;;;;4956875;29;20028;-65
2023/10/27 07:42:28;;;;;;;6.78;1.63;;;16.10;87.40;;;;;;4956588;29;20106;-66
2023/10/27 07:44:55;;;;;;;7.18;1.38;;;16.00;90.00;;;;;;4956714;29;20058;-66
2023/10/27 07:47:23;;;;;;;8.20;1.67;;;16.00;89.60;;;;;;4956765;29;20110;-65
2023/10/27 07:49:50;;;;;;;4.75;1.00;;;16.00;89.70;;;;;;4956650;29;20074;-65
2023/10/27 07:52:17;;;;;;;12.32;1.33;;;15.90;90.20;;;;;;4956552;28;20097;-65
2023/10/27 07:54:44;;;;;;;4.28;0.80;;;15.60;91.50;;;;;;4956957;28;20057;-65
2023/10/27 07:57:12;;;;;;;5.15;1.38;;;15.60;92.50;;;;;;4956259;28;20461;-66
2023/10/27 07:59:39;;;;;;;6.75;1.00;;;15.50;93.00;;;;;;4956548;29;20026;-65
2023/10/27 08:02:06;;;;;;;8.77;1.33;;;15.60;93.00;;;;;;4970727;28;20015;-65
2023/10/27 08:04:34;;;;;;;6.68;0.90;;;15.50;93.90;;;;;;4975587;28;20025;-67
2023/10/27 08:07:02;;;;;;;7.32;1.05;;;15.40;94.00;;;;;;4975445;28;20026;-65
2023/10/27 08:09:29;;;;;;;4.75;1.08;;;15.20;94.50;;;;;;4975301;28;20027;-64
2023/10/27 08:11:57;;;;;;;5.60;0.82;;;15.20;94.70;;;;;;4958611;28;20480;-65
2023/10/27 08:14:24;;;;;;;10.52;1.02;;;15.20;94.40;;;;;;4956176;29;20050;-66
2023/10/27 08:16:52;;;;;;;9.48;1.02;;;15.20;94.50;;;;;;4956287;29;20035;-66
2023/10/27 08:19:20;;;;;;;7.45;1.42;;;15.20;94.50;;;;;;4955907;29;20019;-65
2023/10/27 08:21:48;;;;;;;11.07;1.15;;;15.40;94.10;;;;;;4955803;29;20109;-66
2023/10/27 08:24:16;;;;;;;4.63;0.85;;;15.30;94.40;;;;;;4955725;29;20049;-66
2023/10/27 08:26:46;;;;;;;7.30;1.40;;;15.20;94.20;;;;;;4956056;29;20138;-66
2023/10/27 08:29:13;;;;;;;7.05;1.20;;;15.20;94.70;;;;;;4974563;28;20030;-66
2023/10/27 08:31:41;;;;;;;8.75;1.15;;;15.10;94.60;;;;;;4975054;28;20021;-66
2023/10/27 08:34:11;;;;;;;5.03;1.05;;;15.20;94.60;;;;;;4975344;28;20092;-65
2023/10/27 08:36:39;;;;;;;7.28;1.30;;;15.00;95.00;;;;;;4959840;28;20078;-66
2023/10/27 08:39:06;;;;;;;3.63;0.70;;;15.00;95.30;;;;;;4955601;28;20066;-66
2023/10/27 08:41:36;;;;;;;7.03;1.13;;;15.10;95.00;;;;;;4955728;29;20061;-68
2023/10/27 08:44:04;;;;;;;7.28;1.10;;;14.90;95.30;;;;;;4956199;28;20026;-64
2023/10/27 08:46:32;;;;;;;7.88;1.02;;;14.90;95.40;;;;;;4955675;29;20023;-64
2023/10/27 08:48:59;;;;;;;6.80;1.27;;;14.80;95.30;;;;;;4955637;29;20506;-64
2023/10/27 08:51:28;;;;;;;4.75;1.00;;;14.70;95.60;;;;;;4955353;29;20026;-65
2023/10/27 08:53:57;;;;;;;12.15;1.63;;;14.60;95.80;;;;;;4955631;28;20042;-66
2023/10/27 08:56:25;;;;;;;6.05;1.08;;;14.60;95.80;;;;;;4955513;29;20069;-66
2023/10/27 08:58:52;;;;;;;7.68;1.70;;;14.60;95.90;;;;;;4955542;29;20034;-66
2023/10/27 09:01:20;;;;;;;7.10;1.40;;;14.50;95.90;;;;;;4955331;28;20027;-67
2023/10/27 09:04:06;;;;;;;9.95;1.73;;;14.40;96.00;;;;;;4955349;29;20058;-65
2023/10/27 09:06:34;;;;;;;9.52;2.65;;;14.50;95.90;;;;;;4955523;29;20460;-65
2023/10/27 09:09:02;;;;;;;6.80;1.73;;;14.50;96.10;;;;;;4955368;29;20023;-66
2023/10/27 09:11:30;;;;;;;9.35;2.85;;;14.50;95.80;;;;;;4955343;28;20439;-65
2023/10/27 09:13:57;;;;;;;5.60;1.65;;;14.50;95.70;;;;;;4953726;29;20310;-65
2023/10/27 09:16:26;;;;;;;6.68;1.80;;;14.50;95.60;;;;;;4954875;29;20035;-65
2023/10/27 09:18:55;;;;;;;9.82;1.55;;;14.60;95.20;;;;;;4955374;28;20027;-65
2023/10/27 09:21:36;;;;;;;6.30;1.20;;;14.50;94.90;;;;;;4955299;29;20023;-65
2023/10/27 09:24:04;;;;;;;10.32;2.15;;;14.50;94.90;;;;;;4955058;28;20085;-65
2023/10/27 09:26:46;;;;;;;6.15;1.30;;;14.50;94.70;;;;;;4954948;29;20059;-65
2023/10/27 09:29:13;;;;;;;7.18;1.38;;;14.50;94.80;;;;;;4954704;29;20336;-64
2023/10/27 09:31:40;;;;;;;8.30;1.10;;;14.60;94.70;;;;;;4954944;29;20019;-64
2023/10/27 09:34:21;;;;;;;4.47;1.10;;;14.70;94.50;;;;;;4943879;29;20073;-65
2023/10/27 09:36:59;;;;;;;7.53;1.20;;;14.60;94.40;;;;;;4952035;28;20081;-65
2023/10/27 09:39:28;;;;;;;5.80;0.90;;;14.50;94.30;;;;;;4953201;29;20483;-66
2023/10/27 09:42:06;;;;;;;5.07;1.02;;;14.40;94.80;;;;;;4954860;29;20031;-66
2023/10/27 09:44:51;;;;;;;;;;;14.30;95.00;;;;;;4955238;29;20473;-66
2023/10/27 09:47:49;;;;;;;5.47;1.00;;;14.30;95.00;;;;;;4954633;28;19902;-65
2023/10/27 09:50:22;;;;;;;5.88;1.35;;;14.20;95.30;;;;;;4954738;29;20023;-65
2023/10/27 09:52:50;;;;;;;5.82;1.02;;;14.20;95.20;;;;;;4954774;28;20528;-66
2023/10/27 09:55:18;;;;;;;6.40;1.45;;;14.10;95.40;;;;;;4954509;29;20055;-66
2023/10/27 09:57:47;;;;;;;6.15;1.40;;;14.00;95.70;;;;;;4954436;28;20181;-65
2023/10/27 10:00:27;;;;;;;6.55;1.33;;;13.90;95.90;;;;;;4954314;29;20023;-65
2023/10/27 10:02:56;;;;;;;4.22;1.00;;;13.90;96.00;;;;;;4954535;29;20053;-66
2023/10/27 10:05:24;;;;;;;3.83;0.93;;;13.80;96.00;;;;;;4954533;29;20019;-66
2023/10/27 10:07:52;;;;;;;3.63;0.95;;;13.80;96.00;;;;;;4954388;29;20453;-66
2023/10/27 10:10:39;;;;;;;5.80;0.90;;;13.80;96.00;;;;;;4954792;28;20557;-66
2023/10/27 10:13:18;;;;;;;10.77;1.55;;;13.80;96.10;;;;;;4954506;29;20074;-65
2023/10/27 10:15:47;;;;;;;4.82;0.90;;;13.70;96.20;;;;;;4953145;29;20031;-66
2023/10/27 10:18:26;;;;;;;5.63;1.15;;;13.70;96.00;;;;;;4954244;29;20551;-66
2023/10/27 10:20:58;;;;;;;6.28;0.70;;;13.70;96.10;;;;;;4954470;29;20031;-65
2023/10/27 10:23:48;;;;;;;6.90;1.08;;;13.60;96.20;;;;;;4954295;29;20031;-66
2023/10/27 10:26:15;;;;;;;5.45;1.15;;;13.50;96.40;;;;;;4942041;28;20035;-66
2023/10/27 10:28:46;;;;;;;5.40;1.50;;;13.60;96.40;;;;;;4954144;28;20023;-66
2023/10/27 10:31:21;;;;;;;5.80;1.23;;;13.60;96.40;;;;;;4950843;29;20056;-65
2023/10/27 10:33:51;;;;;;;5.25;1.20;;;13.50;96.40;;;;;;4934520;29;20501;-65
2023/10/27 10:36:25;;;;;;;5.82;1.30;;;13.50;96.50;;;;;;4934813;29;20035;-65
2023/10/27 10:38:59;;;;;;;6.57;1.45;;;13.40;96.40;;;;;;4935039;29;20020;-65
2023/10/27 10:41:44;;;;;;;3.70;0.98;;;13.40;96.40;;;;;;4934784;29;20369;-66
2023/10/27 10:44:13;;;;;;;4.75;0.75;;;13.40;96.30;;;;;;4956255;28;20026;-65
2023/10/27 10:46:41;;;;;;;5.10;1.63;;;13.30;96.30;;;;;;4973385;28;20019;-65
2023/10/27 10:49:12;;;;;;;5.03;1.10;;;13.30;96.30;;;;;;4973238;28;20030;-65
2023/10/27 10:51:39;;;;;;;5.00;0.70;;;13.30;96.40;;;;;;4973211;28;20054;-65
2023/10/27 10:54:12;;;;;;;5.07;0.90;;;13.20;96.20;;;;;;4971771;28;20401;-67
2023/10/27 10:56:40;;;;;;;5.32;1.20;;;13.20;96.40;;;;;;4972906;28;20038;-66
2023/10/27 10:59:08;;;;;;;6.20;1.33;;;13.10;96.30;;;;;;4974100;28;20087;-68
2023/10/27 11:01:35;;;;;;;7.05;0.93;;;13.10;96.30;;;;;;4976181;28;20019;-66
2023/10/27 11:04:02;;;;;;;5.18;1.10;;;13.10;96.30;;;;;;4977260;28;20097;-66
2023/10/27 11:06:30;;;;;;;8.50;1.33;;;13.10;96.30;;;;;;4976863;28;20019;-66
2023/10/27 11:08:57;;;;;;;5.95;1.13;;;13.10;96.20;;;;;;4977050;28;20055;-66
2023/10/27 11:11:24;;;;;;;3.38;0.75;;;13.10;96.20;;;;;;4959667;28;20023;-65
2023/10/27 11:13:57;;;;;;;6.32;1.00;;;13.00;96.20;;;;;;4976817;28;20479;-66
2023/10/27 11:16:25;;;;;;;3.08;0.70;;;13.00;96.20;;;;;;4976595;28;20053;-65
2023/10/27 11:19:02;;;;;;;6.80;0.80;;;12.90;96.40;;;;;;4960303;28;20038;-65
2023/10/27 11:21:33;;;;;;;3.92;0.90;;;12.90;96.40;;;;;;4957117;29;20026;-65
2023/10/27 11:24:08;;;;;;;4.60;1.80;;;12.80;96.40;;;;;;4957427;29;20050;-66
2023/10/27 11:26:45;;;;;;;7.30;1.20;;;12.80;96.50;;;;;;4957315;29;20046;-65
2023/10/27 11:29:12;;;;;;;7.30;1.67;;;12.80;96.30;;;;;;4952798;29;20034;-66
2023/10/27 11:31:42;;;;;;;6.30;1.25;;;12.80;96.30;;;;;;4937960;29;20020;-66
2023/10/27 11:34:11;;;;;;;5.97;1.55;;;12.80;96.40;;;;;;4942846;28;20058;-65
2023/10/27 11:36:44;;;;;;;7.40;1.50;;;12.80;96.40;;;;;;4976367;28;20027;-66
2023/10/27 11:39:15;;;;;;;5.82;1.35;;;12.90;96.50;;;;;;4976335;28;20363;-65
2023/10/27 11:42:03;;;;;;;8.57;1.20;;;12.80;96.40;;;;;;4976223;28;20023;-65
2023/10/27 11:44:32;;;;;;;7.10;1.10;;;12.90;96.30;;;;;;4976068;28;20053;-66
2023/10/27 11:47:04;;;;;;;8.63;1.10;;;12.90;96.30;;;;;;4974945;28;20613;-65
2023/10/27 11:49:32;;;;;;;3.88;1.10;;;12.90;96.40;;;;;;4976193;28;20042;-65
2023/10/27 11:52:00;;;;;;;8.10;1.60;;;13.00;96.30;;;;;;4975122;28;20550;-65
2023/10/27 11:54:28;;;;;;;4.68;1.20;;;13.00;96.30;;;;;;4975811;28;20037;-65
2023/10/27 11:56:55;;;;;;;4.30;1.20;;;13.00;96.20;;;;;;4975707;28;20472;-65
2023/10/27 11:59:26;;;;;;;8.68;1.92;;;13.00;96.20;;;;;;4975983;28;20014;-64
2023/10/27 12:01:54;;;;;;;7.15;1.80;;;13.00;96.20;;;;;;4962479;28;20364;-65
2023/10/27 12:04:21;;;;;;;10.32;2.58;;;12.90;96.00;;;;;;4955173;29;20074;-65
2023/10/27 12:06:52;;;;;;;5.85;1.90;;;12.90;96.20;;;;;;4956410;29;20050;-65
2023/10/27 12:09:20;;;;;;;5.32;1.42;;;12.90;96.30;;;;;;4956777;28;20024;-65
2023/10/27 12:11:47;;;;;;;6.03;1.70;;;13.00;96.30;;;;;;4955284;28;20105;-65
2023/10/27 12:14:15;;;;;;;3.72;1.00;;;13.00;96.20;;;;;;4955030;29;20417;-65
2023/10/27 12:16:42;;;;;;;4.63;0.88;;;13.00;96.20;;;;;;4956254;29;20032;-65
2023/10/27 12:19:13;;;;;;;7.55;1.13;;;13.00;96.20;;;;;;4956168;29;20480;-65
2023/10/27 12:21:40;;;;;;;5.00;0.95;;;12.90;96.20;;;;;;4956158;29;20078;-65
2023/10/27 12:24:08;;;;;;;3.42;0.80;;;12.90;96.20;;;;;;4955932;29;20350;-65
2023/10/27 12:26:36;;;;;;;4.53;0.98;;;12.90;96.30;;;;;;4969418;28;20396;-64
2023/10/27 12:29:04;;;;;;;;;;;12.80;96.30;;;;;;4975874;28;20104;-64
2023/10/27 12:31:32;;;;;;;10.32;0.70;;;12.80;96.30;;;;;;4975374;28;19906;-64
2023/10/27 12:33:59;;;;;;;6.50;0.90;;;12.80;96.40;;;;;;4974952;28;20049;-64
2023/10/27 12:36:26;;;;;;;8.48;1.10;;;12.80;96.30;;;;;;4974912;28;20538;-65
2023/10/27 12:38:54;;;;;;;7.63;0.90;;;12.70;96.40;;;;;;4975390;28;20019;-65
2023/10/27 12:41:21;;;;;;;7.30;0.90;;;12.70;96.60;;;;;;4975118;28;20428;-65
2023/10/27 12:43:48;;;;;;;5.30;1.15;;;12.60;96.60;;;;;;4974290;28;20019;-65
2023/10/27 12:46:16;;;;;;;5.38;1.17;;;12.70;96.70;;;;;;4975022;28;20453;-65
2023/10/27 12:48:44;;;;;;;8.43;1.38;;;12.70;96.60;;;;;;4975005;28;20065;-64
2023/10/27 12:51:11;;;;;;;;;;;12.80;96.60;;;;;;4975219;28;20479;-65
2023/10/27 12:53:38;;;;;;;8.68;1.13;;;12.80;96.40;;;;;;4975031;28;19906;-65
2023/10/27 12:56:07;;;;;;;;;;;12.80;96.50;;;;;;4975120;28;20018;-65